Aérodrome :
LOGIN :

S'inscrire | Disclaimer

   EN    FR    IT 

 










Légende :    VFR   VFR Marginal   IFR   IFR Intensif   IFR Très Intensif
Visi : 
Plafond : 
>= 8 km
>= 3000ft
5 à 8 km
1000 à 3000 ft
1500m à 5 km
500 à 1000 ft
800 à 1500m
200 à 500 ft
< 800m
< 200 ft
Symboles :   Orages  Brouillard  Fortes neiges  Fortes précipitations  Vent > 20 kt
SIGMETs :   Divers  Orages  Givrage  Turbulence  Onde Orograph.  Cendres Volcan.







- Altitude de l'aérodrome : 284 ft


EGUW - RAF Wattisham

DERNIER METAR :
  • 221950Z AUTO 27012KT 9999 FEW037/// BKN045/// 15/08 Q1009

METARs EXPIRÉS :
  • 221850Z AUTO 28012KT 9999 SCT050/// SCT150/// 16/08 Q1008
  • 221750Z AUTO 30009KT 9999 SCT100/// SCT140/// 18/12 Q1007
  • 221650Z AUTO 29014KT 9999 BKN050/// 19/11 Q1007

Prévision TAF périmée.
Pas de NOTAMs connus pour ce terrain.
1 SIGMET publié pour la FIR London (EGTT) :
 
Orages noyés dans la masse
EGTT SIGMET 04 VALID 221900/222200 EGRR
EGTT LONDON FIR EMBD TS FCST WI N5455 E00437 - N5237 E00248 - N5237 E00123 - N5456 E00245 - N5455 E00437 TOP FL310 MOV ENE 30KT NC=



MET'MAP, la Météo Aéronautique d'un coup d'oeil ! - Copyright ORBIFLY Décembre 2007 - Disclaimer

ORBIFLY MET'MAP TEAM :

Programmation & Développement : Alexandra Zaïnal
Conception & Développement : Baudouin d'Aumeries
Co-Programmation & Développement : Marc-Olivier Méhu
Soutien technique & logistique : Manuel Goepfert

Contact : metmap@orbifly.com




SOURCES & CREDITS :

   NOAA